Time;durP1;ratioP1;P1;durP2;ratioP2;P2;SDS_P1;SDS_P2;PMS_P1;PMS_P2;Temp;Humidity;BMP_temperature;BMP_pressure;BME280_temperature;BME280_humidity;BME280_pressure;Samples;Min_cycle;Max_cycle;Signal;HPM_P1;HPM_P2
2023/10/16 00:02:24;;;;;;;453.53;173.37;;;;;;;;;;4987203;28;20651;-52
2023/10/16 00:04:52;;;;;;;470.50;180.47;;;;;;;;;;4982045;28;20229;-51
2023/10/16 00:07:21;;;;;;;512.90;209.07;;;;;;;;;;4981362;28;20177;-51
2023/10/16 00:09:53;;;;;;;484.13;191.87;;;;;;;;;;4986304;28;20451;-51
2023/10/16 00:12:20;;;;;;;509.53;205.87;;;;;;;;;;4988290;28;20631;-51
2023/10/16 00:14:46;;;;;;;494.90;196.30;;;;;;;;;;4985562;28;21283;-51
2023/10/16 00:17:14;;;;;;;473.63;184.00;;;;;;;;;;4986834;28;20177;-51
2023/10/16 00:19:40;;;;;;;488.07;195.53;;;;;;;;;;4983602;28;20225;-51
2023/10/16 00:22:15;;;;;;;486.57;196.27;;;;;;;;;;4983236;28;20292;-50
2023/10/16 00:24:45;;;;;;;490.37;193.57;;;;;;;;;;4975053;28;20198;-51
2023/10/16 00:27:14;;;;;;;410.57;154.73;;;;;;;;;;4980146;28;20188;-50
2023/10/16 00:29:41;;;;;;;458.47;179.27;;;;;;;;;;4979179;28;20635;-50
2023/10/16 00:32:07;;;;;;;450.73;174.07;;;;;;;;;;4991256;28;20223;-50
2023/10/16 00:34:33;;;;;;;479.00;180.80;;;;;;;;;;4981361;28;20189;-50
2023/10/16 00:37:01;;;;;;;460.63;177.63;;;;;;;;;;4978708;28;20195;-51
2023/10/16 00:39:30;;;;;;;448.13;174.13;;;;;;;;;;4992647;28;20205;-50
2023/10/16 00:42:00;;;;;;;513.53;201.23;;;;;;;;;;4982998;28;20186;-50
2023/10/16 00:44:35;;;;;;;437.07;170.40;;;;;;;;;;4981627;28;20691;-50
2023/10/16 00:47:04;;;;;;;469.97;188.57;;;;;;;;;;4978650;28;20234;-50
2023/10/16 00:49:30;;;;;;;451.80;171.00;;;;;;;;;;4988453;28;20208;-51
2023/10/16 00:51:56;;;;;;;492.67;197.37;;;;;;;;;;4975972;28;20241;-51
2023/10/16 00:54:28;;;;;;;488.50;188.03;;;;;;;;;;4985405;28;20216;-50
2023/10/16 00:56:54;;;;;;;511.87;196.70;;;;;;;;;;4977286;28;20195;-50
2023/10/16 00:59:23;;;;;;;455.10;172.67;;;;;;;;;;4985918;28;20683;-50
2023/10/16 01:01:51;;;;;;;537.43;216.07;;;;;;;;;;4977760;28;20366;-50
2023/10/16 01:04:19;;;;;;;442.40;165.87;;;;;;;;;;4983749;28;20702;-50
2023/10/16 01:06:46;;;;;;;449.07;175.63;;;;;;;;;;4982736;28;20279;-51
2023/10/16 01:09:22;;;;;;;444.30;173.77;;;;;;;;;;4985958;28;20511;-50
2023/10/16 01:11:49;;;;;;;490.73;197.17;;;;;;;;;;4987314;28;20215;-51
2023/10/16 01:14:15;;;;;;;477.47;181.60;;;;;;;;;;4978338;28;20189;-50
2023/10/16 01:16:41;;;;;;;500.33;200.10;;;;;;;;;;4984008;28;21036;-51
2023/10/16 01:19:09;;;;;;;484.47;192.80;;;;;;;;;;4967281;28;20311;-51
2023/10/16 01:21:35;;;;;;;458.47;183.03;;;;;;;;;;4973203;28;20579;-51
2023/10/16 01:24:11;;;;;;;507.43;208.23;;;;;;;;;;4984142;28;20287;-50
2023/10/16 01:26:37;;;;;;;450.17;176.67;;;;;;;;;;4989142;28;20551;-51
2023/10/16 01:29:07;;;;;;;455.13;174.00;;;;;;;;;;4983666;28;20217;-51
2023/10/16 01:31:33;;;;;;;469.87;178.97;;;;;;;;;;4988490;28;20223;-51
2023/10/16 01:33:59;;;;;;;501.87;206.70;;;;;;;;;;4983153;28;20648;-50
2023/10/16 01:36:25;;;;;;;508.87;207.83;;;;;;;;;;4987320;28;20338;-50
2023/10/16 01:38:51;;;;;;;506.03;197.47;;;;;;;;;;4980549;28;20533;-51
2023/10/16 01:41:23;;;;;;;487.13;184.93;;;;;;;;;;4988116;28;20267;-50
2023/10/16 01:43:52;;;;;;;446.50;181.40;;;;;;;;;;4985609;28;20445;-50
2023/10/16 01:46:18;;;;;;;447.97;172.50;;;;;;;;;;4987834;28;20216;-51
2023/10/16 01:48:46;;;;;;;451.00;175.03;;;;;;;;;;4991696;28;20212;-50
2023/10/16 01:51:18;;;;;;;482.87;191.03;;;;;;;;;;4976494;28;20520;-51
2023/10/16 01:53:44;;;;;;;504.13;195.93;;;;;;;;;;4981487;28;20279;-51
2023/10/16 01:56:13;;;;;;;486.70;186.63;;;;;;;;;;4990902;28;20181;-51
2023/10/16 01:58:44;;;;;;;441.97;170.73;;;;;;;;;;4987085;28;20556;-50
2023/10/16 02:01:10;;;;;;;483.90;193.10;;;;;;;;;;4991793;28;20940;-50
2023/10/16 02:03:36;;;;;;;460.07;174.57;;;;;;;;;;4989654;28;20185;-50
2023/10/16 02:06:02;;;;;;;482.37;194.40;;;;;;;;;;4985192;28;20606;-51
2023/10/16 02:08:28;;;;;;;506.40;186.20;;;;;;;;;;4983669;28;20887;-50
2023/10/16 02:10:54;;;;;;;493.90;183.53;;;;;;;;;;4974952;28;20192;-51
2023/10/16 02:13:20;;;;;;;462.87;172.97;;;;;;;;;;4980386;28;20188;-50
2023/10/16 02:15:47;;;;;;;479.77;176.83;;;;;;;;;;4979387;28;20181;-50
2023/10/16 02:18:22;;;;;;;475.90;176.93;;;;;;;;;;4982543;28;20240;-51
2023/10/16 02:20:49;;;;;;;447.30;164.53;;;;;;;;;;4979312;28;20212;-50
2023/10/16 02:23:15;;;;;;;517.50;190.77;;;;;;;;;;4969140;28;20188;-50
2023/10/16 02:25:41;;;;;;;454.33;171.13;;;;;;;;;;4981826;28;20189;-50
2023/10/16 02:28:08;;;;;;;505.97;187.33;;;;;;;;;;4980853;28;20189;-51
2023/10/16 02:30:38;;;;;;;486.50;180.67;;;;;;;;;;4976195;28;20239;-50
2023/10/16 02:33:14;;;;;;;497.73;185.20;;;;;;;;;;4985170;28;20684;-50
2023/10/16 02:35:48;;;;;;;489.37;180.57;;;;;;;;;;4980983;28;20956;-50
2023/10/16 02:38:14;;;;;;;437.17;162.63;;;;;;;;;;4981139;28;20185;-51
2023/10/16 02:40:44;;;;;;;479.17;175.50;;;;;;;;;;4983354;28;20970;-50
2023/10/16 02:43:18;;;;;;;421.37;155.60;;;;;;;;;;4982353;28;21144;-51
2023/10/16 02:45:51;;;;;;;478.83;180.53;;;;;;;;;;4990052;28;20196;-51
2023/10/16 02:48:17;;;;;;;488.87;181.03;;;;;;;;;;4983310;28;20184;-51
2023/10/16 02:50:44;;;;;;;452.30;162.17;;;;;;;;;;4982889;28;20244;-51
2023/10/16 02:53:11;;;;;;;524.93;196.43;;;;;;;;;;4991007;28;20411;-52
2023/10/16 02:55:40;;;;;;;477.53;176.70;;;;;;;;;;4988598;28;20680;-51
2023/10/16 02:58:11;;;;;;;466.90;176.23;;;;;;;;;;4974863;28;20178;-51
2023/10/16 03:00:38;;;;;;;443.03;163.03;;;;;;;;;;4984810;28;20763;-51
2023/10/16 03:03:07;;;;;;;457.63;168.70;;;;;;;;;;4982598;28;20193;-51
2023/10/16 03:05:33;;;;;;;500.70;183.47;;;;;;;;;;4980486;28;20184;-51
2023/10/16 03:08:00;;;;;;;528.40;193.60;;;;;;;;;;4976571;28;20194;-51
2023/10/16 03:10:26;;;;;;;460.30;176.40;;;;;;;;;;4988250;28;20236;-51
2023/10/16 03:12:52;;;;;;;411.17;152.90;;;;;;;;;;4986534;28;20699;-51
2023/10/16 03:15:28;;;;;;;464.27;181.23;;;;;;;;;;4984050;28;20272;-51
2023/10/16 03:17:54;;;;;;;455.57;173.53;;;;;;;;;;4982938;28;20181;-51
2023/10/16 03:20:36;;;;;;;437.50;168.73;;;;;;;;;;4987363;28;20298;-51
2023/10/16 03:23:07;;;;;;;476.97;180.43;;;;;;;;;;4988496;28;20193;-50
2023/10/16 03:25:54;;;;;;;484.00;184.17;;;;;;;;;;4985559;28;20522;-51
2023/10/16 03:28:19;;;;;;;423.67;159.77;;;;;;;;;;4984316;28;20277;-51
2023/10/16 03:30:45;;;;;;;438.37;164.80;;;;;;;;;;4991095;28;20288;-51
2023/10/16 03:33:14;;;;;;;483.90;186.23;;;;;;;;;;4975570;28;20260;-51
2023/10/16 03:35:47;;;;;;;423.27;165.37;;;;;;;;;;4990758;28;20384;-51
2023/10/16 03:38:28;;;;;;;443.77;168.63;;;;;;;;;;4987112;28;20185;-51
2023/10/16 03:40:56;;;;;;;471.60;176.77;;;;;;;;;;4986290;28;20196;-51
2023/10/16 03:43:22;;;;;;;454.10;171.97;;;;;;;;;;4980317;28;20450;-51
2023/10/16 03:45:49;;;;;;;429.73;164.27;;;;;;;;;;4985333;28;20275;-51
2023/10/16 03:48:17;;;;;;;437.63;168.07;;;;;;;;;;4986271;28;20544;-51
2023/10/16 03:50:43;;;;;;;463.07;181.07;;;;;;;;;;4981815;28;20206;-50
2023/10/16 03:53:09;;;;;;;461.70;186.17;;;;;;;;;;4981788;28;20259;-51
2023/10/16 03:55:47;;;;;;;472.20;180.83;;;;;;;;;;4979880;28;20189;-51
2023/10/16 03:58:13;;;;;;;451.07;179.33;;;;;;;;;;4981490;28;20216;-50
2023/10/16 04:00:57;;;;;;;491.20;195.63;;;;;;;;;;4989833;28;20201;-50
2023/10/16 04:03:25;;;;;;;469.53;179.93;;;;;;;;;;4984883;28;20180;-51
2023/10/16 04:05:53;;;;;;;484.43;180.50;;;;;;;;;;4978044;28;20567;-51
2023/10/16 04:08:23;;;;;;;437.17;163.07;;;;;;;;;;4986001;28;20178;-50
2023/10/16 04:10:49;;;;;;;422.93;159.73;;;;;;;;;;4982996;28;20196;-51
2023/10/16 04:13:18;;;;;;;446.80;172.50;;;;;;;;;;4987109;28;20213;-51
2023/10/16 04:20:55;;;;;;;462.43;181.07;;;;;;;;;;4992075;28;20667;-51
2023/10/16 04:23:52;;;;;;;471.03;185.47;;;;;;;;;;4984988;28;20370;-51
2023/10/16 04:31:44;;;;;;;433.63;162.33;;;;;;;;;;4985301;28;20330;-50
2023/10/16 04:34:39;;;;;;;453.93;177.77;;;;;;;;;;4990395;28;20265;-51
2023/10/16 04:50:29;;;;;;;475.43;194.40;;;;;;;;;;4989261;28;20208;-51
2023/10/16 04:58:27;;;;;;;502.33;198.70;;;;;;;;;;4984206;28;20264;-51
2023/10/16 05:13:17;;;;;;;428.37;165.33;;;;;;;;;;4985891;28;20221;-51
2023/10/16 05:15:20;;;;;;;445.90;168.77;;;;;;;;;;4983594;28;20304;-51
2023/10/16 05:17:21;;;;;;;478.37;187.50;;;;;;;;;;4987539;28;20209;-51
2023/10/16 05:20:13;;;;;;;466.83;180.03;;;;;;;;;;4982271;28;20570;-52
2023/10/16 06:15:01;;;;;;;497.97;200.40;;;;;;;;;;4985058;28;20386;-50
2023/10/16 06:17:28;;;;;;;438.70;176.03;;;;;;;;;;4970960;28;26633;-50
2023/10/16 06:19:53;;;;;;;443.77;173.83;;;;;;;;;;4983353;28;20216;-50
2023/10/16 06:22:19;;;;;;;567.43;226.03;;;;;;;;;;4982577;28;20235;-50
2023/10/16 06:24:47;;;;;;;703.20;272.73;;;;;;;;;;4966765;28;20270;-49
2023/10/16 06:27:19;;;;;;;512.83;198.77;;;;;;;;;;4964630;28;20652;-51
2023/10/16 06:29:51;;;;;;;441.93;176.23;;;5.50;99.90;;;;;;4957083;28;20556;-52
2023/10/16 06:32:25;;;;;;;485.43;201.40;;;5.70;99.90;;;;;;4981398;28;20241;-50
2023/10/16 06:34:57;;;;;;;425.27;165.17;;;;;;;;;;4987278;28;20440;-50
2023/10/16 06:37:23;;;;;;;490.77;186.60;;;;;;;;;;4975444;28;20474;-51
2023/10/16 06:39:54;;;;;;;459.33;176.10;;;;;;;;;;4976154;28;20572;-51
2023/10/16 06:42:20;;;;;;;576.80;226.00;;;;;;;;;;4970039;28;20560;-51
2023/10/16 06:44:56;;;;;;;506.53;196.33;;;;;;;;;;4956635;28;20189;-51
2023/10/16 06:47:35;;;;;;;521.53;224.10;;;;;;;;;;4957508;28;20212;-50
2023/10/16 06:50:02;;;;;;;449.10;181.07;;;;;;;;;;4966192;28;20848;-51
2023/10/16 06:52:28;;;;;;;513.40;226.73;;;;;;;;;;4956779;28;20260;-51
2023/10/16 06:54:53;;;;;;;458.57;188.37;;;5.50;99.90;;;;;;4951877;28;20268;-51
2023/10/16 06:57:19;;;;;;;536.73;242.07;;;;;;;;;;4973852;28;20189;-51
2023/10/16 06:59:45;;;;;;;510.60;216.90;;;;;;;;;;4975198;28;20209;-51
2023/10/16 07:02:19;;;;;;;475.33;194.70;;;;;;;;;;4963919;28;20184;-51
2023/10/16 07:04:46;;;;;;;466.40;187.93;;;;;;;;;;4982453;28;20246;-50
2023/10/16 07:07:16;;;;;;;452.33;181.40;;;;;;;;;;4984604;28;20238;-50
2023/10/16 07:09:47;;;;;;;462.63;182.53;;;6.00;99.90;;;;;;4976646;28;20263;-51
2023/10/16 07:12:13;;;;;;;453.67;186.20;;;3.10;99.90;;;;;;4986161;28;20241;-51
2023/10/16 07:14:39;;;;;;;445.73;179.40;;;;;;;;;;4980108;28;20481;-51
2023/10/16 07:17:05;;;;;;;480.67;203.07;;;;;;;;;;4980356;28;30113;-51
2023/10/16 07:19:31;;;;;;;464.10;188.43;;;;;;;;;;4978962;28;20509;-51
2023/10/16 07:22:00;;;;;;;483.97;200.00;;;;;;;;;;4978229;28;20699;-50
2023/10/16 07:24:26;;;;;;;612.20;291.87;;;;;;;;;;4976222;28;20262;-51
2023/10/16 07:26:52;;;;;;;486.83;203.47;;;;;;;;;;4976780;28;20196;-50
2023/10/16 07:29:21;;;;;;;510.53;217.23;;;;;;;;;;4969692;28;20201;-50
2023/10/16 07:31:49;;;;;;;559.43;252.83;;;;;;;;;;4951903;28;20213;-50
2023/10/16 07:34:15;;;;;;;507.40;215.60;;;;;;;;;;4962439;28;20220;-51
2023/10/16 07:36:42;;;;;;;437.27;173.07;;;;;;;;;;4969313;28;20212;-51
2023/10/16 07:39:08;;;;;;;436.57;170.33;;;;;;;;;;4965299;28;20746;-50
2023/10/16 07:41:37;;;;;;;524.20;223.90;;;;;;;;;;4955373;28;20209;-51
2023/10/16 07:44:04;;;;;;;490.93;208.43;;;;;;;;;;4974690;28;20561;-51
2023/10/16 07:46:30;;;;;;;484.47;193.03;;;;;;;;;;4953242;28;20625;-50
2023/10/16 07:49:01;;;;;;;462.83;188.63;;;6.60;37.00;;;;;;4958733;28;27533;-50
2023/10/16 07:51:27;;;;;;;535.13;232.93;;;;;;;;;;4959256;28;20240;-51
2023/10/16 07:53:56;;;;;;;461.90;186.33;;;6.40;16.90;;;;;;4964768;28;20190;-50
2023/10/16 07:56:25;;;;;;;493.90;203.10;;;;;;;;;;4963602;28;20281;-50
2023/10/16 07:58:56;;;;;;;459.70;183.47;;;6.70;1.00;;;;;;4957133;28;20197;-50
2023/10/16 08:01:45;;;;;;;483.77;200.57;;;6.70;1.00;;;;;;4951496;28;20213;-51
2023/10/16 08:04:19;;;;;;;444.10;179.03;;;6.70;7.40;;;;;;4961352;28;20182;-51
2023/10/16 08:06:46;;;;;;;510.63;210.27;;;;;;;;;;4963115;28;20640;-51
2023/10/16 08:14:42;;;;;;;457.10;175.93;;;;;;;;;;4962816;28;20232;-51
2023/10/16 08:17:15;;;;;;;469.73;190.90;;;;;;;;;;4955896;28;31646;-51
2023/10/16 08:19:41;;;;;;;478.47;195.60;;;;;;;;;;4943606;28;21440;-51
2023/10/16 08:22:07;;;;;;;471.27;193.07;;;;;;;;;;4958707;28;20189;-51
2023/10/16 08:24:34;;;;;;;480.37;198.30;;;;;;;;;;4965429;28;20235;-50
2023/10/16 08:29:53;;;;;;;478.07;192.33;;;;;;;;;;4956436;28;20587;-50
2023/10/16 08:35:09;;;;;;;500.40;219.03;;;;;;;;;;4969625;28;20610;-50
2023/10/16 08:37:35;;;;;;;494.37;207.07;;;;;;;;;;4971769;28;20204;-51
2023/10/16 08:40:02;;;;;;;475.57;196.53;;;;;;;;;;4978911;28;20217;-50
2023/10/16 08:42:27;;;;;;;560.43;258.20;;;7.30;1.00;;;;;;4973962;28;20708;-51
2023/10/16 08:47:42;;;;;;;452.57;178.37;;;;;;;;;;4963916;28;20212;-51
2023/10/16 08:50:17;;;;;;;473.07;190.90;;;;;;;;;;4971468;28;20575;-51
2023/10/16 08:52:49;;;;;;;463.67;187.90;;;;;;;;;;4982988;28;20212;-51
2023/10/16 08:55:15;;;;;;;450.87;182.03;;;;;;;;;;4975069;28;20264;-50
2023/10/16 08:57:41;;;;;;;436.10;174.83;;;;;;;;;;4980564;28;20243;-51
2023/10/16 09:00:11;;;;;;;614.13;291.17;;;11.00;1.00;;;;;;4966825;28;20206;-51
2023/10/16 09:02:39;;;;;;;513.80;220.10;;;7.70;99.90;;;;;;4959631;28;26742;-51
2023/10/16 09:05:08;;;;;;;518.00;227.33;;;;;;;;;;4967826;28;20212;-51
2023/10/16 09:07:34;;;;;;;586.60;279.17;;;;;;;;;;4940382;28;33911;-51
2023/10/16 09:10:02;;;;;;;495.40;207.37;;;;;;;;;;4959442;28;20674;-51
2023/10/16 09:12:27;;;;;;;554.00;251.07;;;8.20;1.00;;;;;;4966844;28;20209;-51
2023/10/16 09:15:06;;;;;;;506.10;216.70;;;8.10;1.00;;;;;;4962056;28;20648;-51
2023/10/16 09:17:35;;;;;;;498.47;209.57;;;8.20;1.00;;;;;;4951458;28;28399;-51
2023/10/16 09:20:03;;;;;;;479.43;195.20;;;5.50;42.30;;;;;;4962135;28;20221;-51
2023/10/16 09:22:29;;;;;;;465.97;189.80;;;;;;;;;;4960723;28;20296;-51
2023/10/16 09:24:58;;;;;;;505.70;215.27;;;;;;;;;;4960466;28;20186;-51
2023/10/16 09:27:30;;;;;;;575.20;251.87;;;8.40;1.00;;;;;;4959330;28;20209;-51
2023/10/16 09:30:00;;;;;;;531.67;224.23;;;8.30;1.00;;;;;;4958948;28;27721;-51
2023/10/16 09:32:28;;;;;;;509.57;214.90;;;8.40;1.00;;;;;;4945063;28;25803;-50
2023/10/16 09:34:54;;;;;;;501.10;215.80;;;;;;;;;;4961511;28;20550;-51
2023/10/16 09:37:29;;;;;;;480.67;194.67;;;8.60;99.90;;;;;;4959703;28;20289;-51
2023/10/16 09:40:00;;;;;;;470.57;185.40;;;;;;;;;;4965231;28;20275;-52
2023/10/16 09:42:26;;;;;;;584.37;269.03;;;;;;;;;;4964000;28;20276;-51
2023/10/16 09:45:09;;;;;;;480.43;192.73;;;;;;;;;;4966703;28;20196;-51
2023/10/16 09:47:48;;;;;;;515.57;233.07;;;;;;;;;;4943413;28;20686;-51
2023/10/16 09:50:18;;;;;;;500.70;217.90;;;;;;;;;;4961146;28;20209;-51
2023/10/16 09:52:48;;;;;;;489.40;210.03;;;8.90;1.00;;;;;;4954467;28;20380;-51
2023/10/16 09:55:14;;;;;;;463.03;188.87;;;;;;;;;;4961921;28;20178;-50
2023/10/16 09:57:52;;;;;;;519.03;228.07;;;9.20;99.90;;;;;;4964995;28;20273;-50
2023/10/16 10:00:28;;;;;;;597.73;285.13;;;10.70;99.90;;;;;;4955331;28;20197;-50
2023/10/16 10:03:20;;;;;;;453.47;193.57;;;9.40;1.00;;;;;;4953209;28;20189;-50
2023/10/16 10:06:08;;;;;;;468.77;196.17;;;9.50;1.00;;;;;;4948181;28;20252;-52
2023/10/16 10:09:44;;;;;;;479.00;201.50;;;9.60;99.90;;;;;;4962778;28;20197;-50
2023/10/16 10:12:47;;;;;;;517.53;231.00;;;9.70;99.90;;;;;;4971426;28;20221;-50
2023/10/16 10:14:48;;;;;;;510.07;228.40;;;9.90;99.90;;;;;;4947245;28;20189;-50
2023/10/16 10:17:20;;;;;;;443.83;182.10;;;10.00;99.90;;;;;;4964999;28;20185;-50
2023/10/16 10:19:46;;;;;;;466.97;191.23;;;;;;;;;;4983129;23;20229;-48
2023/10/16 10:22:22;;;;;;;492.17;205.23;;;;;;;;;;5004525;28;20183;-48
2023/10/16 10:25:08;;;;;;;479.33;195.27;;;10.30;71.60;;;;;;5002553;28;20202;-48
2023/10/16 10:27:41;;;;;;;550.20;240.77;;;10.40;1.00;;;;;;4994855;28;21421;-48
2023/10/16 10:30:33;;;;;;;519.57;219.97;;;10.30;99.90;;;;;;4995635;28;20230;-48
2023/10/16 10:32:59;;;;;;;492.30;205.33;;;10.40;1.00;;;;;;4993346;28;23516;-48
2023/10/16 10:35:38;;;;;;;518.33;224.70;;;;;;;;;;4992224;28;20184;-48
2023/10/16 10:38:29;;;;;;;472.73;196.13;;;10.50;1.00;;;;;;4997080;28;20604;-47
2023/10/16 10:41:03;;;;;;;492.83;195.17;;;10.40;1.00;;;;;;4979486;28;20279;-46
2023/10/16 10:44:08;;;;;;;494.17;195.50;;;10.80;1.00;;;;;;4991890;28;20597;-46
2023/10/16 10:46:35;;;;;;;549.90;216.33;;;10.80;1.00;;;;;;4998215;28;20254;-46
2023/10/16 10:49:01;;;;;;;491.77;202.17;;;;;;;;;;4980277;28;35872;-47
2023/10/16 10:51:35;;;;;;;533.47;233.90;;;10.90;1.00;;;;;;4999705;28;20334;-47
2023/10/16 10:54:06;;;;;;;522.37;222.43;;;;;;;;;;5000004;28;20184;-47
2023/10/16 10:56:47;;;;;;;575.50;250.90;;;;;;;;;;4998382;28;20184;-46
2023/10/16 10:59:13;;;;;;;488.80;195.83;;;;;;;;;;4997784;28;20307;-47
2023/10/16 11:02:08;;;;;;;435.63;180.03;;;;;;;;;;4977492;28;20553;-48
2023/10/16 11:04:34;;;;;;;423.20;171.97;;;;;;;;;;5010225;28;20796;-48
2023/10/16 11:07:11;;;;;;;418.93;167.10;;;;;;;;;;5019831;28;20187;-48
2023/10/16 11:09:38;;;;;;;437.10;177.63;;;;;;;;;;5047895;28;20665;-48
2023/10/16 11:12:09;;;;;;;416.43;164.33;;;;;;;;;;5036486;28;20199;-48
2023/10/16 11:14:36;;;;;;;425.13;166.97;;;;;;;;;;5049085;28;20743;-48
2023/10/16 11:17:06;;;;;;;421.87;173.53;;;;;;;;;;5029201;28;20180;-48
2023/10/16 11:19:44;;;;;;;440.57;182.50;;;;;;;;;;5038656;28;20578;-48
2023/10/16 11:22:10;;;;;;;420.73;169.10;;;;;;;;;;5035015;28;20638;-48
2023/10/16 11:24:36;;;;;;;424.23;173.57;;;;;;;;;;5031612;28;20180;-48
2023/10/16 11:27:05;;;;;;;399.30;163.27;;;;;;;;;;5034081;28;20277;-48
2023/10/16 11:29:33;;;;;;;440.53;177.73;;;;;;;;;;5036646;28;20594;-48
2023/10/16 11:32:06;;;;;;;459.40;187.50;;;;;;;;;;5046435;28;20211;-48
2023/10/16 11:34:41;;;;;;;441.57;176.97;;;;;;;;;;5032301;28;20858;-48
2023/10/16 11:37:12;;;;;;;460.97;184.73;;;;;;;;;;5010801;28;20165;-48
2023/10/16 11:39:38;;;;;;;452.87;182.20;;;;;;;;;;5032680;28;20191;-48
2023/10/16 11:42:04;;;;;;;445.77;180.73;;;;;;;;;;5035516;28;20643;-48
2023/10/16 11:44:33;;;;;;;447.20;180.97;;;;;;;;;;5028858;28;20187;-48
2023/10/16 11:47:01;;;;;;;445.07;180.17;;;;;;;;;;5029040;28;20181;-48
2023/10/16 11:49:35;;;;;;;445.67;179.70;;;;;;;;;;5036083;28;20506;-48
2023/10/16 11:52:08;;;;;;;442.83;180.53;;;;;;;;;;5025452;28;20210;-47
2023/10/16 11:54:36;;;;;;;439.30;177.53;;;;;;;;;;5040004;28;20167;-48
2023/10/16 11:57:03;;;;;;;449.97;179.13;;;;;;;;;;5048072;28;20184;-47
2023/10/16 11:59:31;;;;;;;436.33;175.47;;;;;;;;;;5045575;28;20290;-48
2023/10/16 12:02:00;;;;;;;417.90;170.03;;;;;;;;;;5042114;28;20281;-48
2023/10/16 12:04:26;;;;;;;432.17;174.10;;;;;;;;;;5041677;28;20267;-48
2023/10/16 12:06:53;;;;;;;437.67;176.03;;;;;;;;;;5047990;28;20602;-50
2023/10/16 12:09:19;;;;;;;436.63;173.43;;;;;;;;;;5047618;28;20203;-48
2023/10/16 12:11:49;;;;;;;436.70;178.97;;;;;;;;;;5030899;28;20226;-48
2023/10/16 12:14:15;;;;;;;445.47;177.13;;;;;;;;;;5040370;28;20187;-48
2023/10/16 12:16:45;;;;;;;444.10;182.87;;;;;;;;;;5045356;28;20274;-48
2023/10/16 12:19:15;;;;;;;446.10;175.43;;;;;;;;;;5027769;28;20298;-47
2023/10/16 12:21:47;;;;;;;442.73;181.27;;;;;;;;;;5037640;28;20183;-47
2023/10/16 12:24:14;;;;;;;437.97;176.90;;;;;;;;;;5026211;28;20267;-47
2023/10/16 12:26:42;;;;;;;449.13;178.70;;;;;;;;;;5022858;28;20274;-48
2023/10/16 12:29:08;;;;;;;455.90;181.87;;;;;;;;;;5027509;28;20188;-48
2023/10/16 12:31:35;;;;;;;466.83;185.93;;;;;;;;;;5035459;28;20194;-48
2023/10/16 12:34:00;;;;;;;449.53;181.67;;;;;;;;;;5028336;28;20635;-48
2023/10/16 12:36:29;;;;;;;444.23;178.60;;;;;;;;;;5027826;28;20230;-48
2023/10/16 12:38:54;;;;;;;446.67;180.33;;;;;;;;;;5046534;28;20208;-48
2023/10/16 12:41:21;;;;;;;440.60;175.93;;;;;;;;;;5042990;28;20538;-48
2023/10/16 12:43:48;;;;;;;453.50;180.73;;;;;;;;;;5025566;28;20213;-48
2023/10/16 12:46:13;;;;;;;440.83;172.63;;;;;;;;;;5007879;28;20687;-48
2023/10/16 12:48:39;;;;;;;448.93;176.27;;;;;;;;;;5012388;28;20266;-48
2023/10/16 12:51:10;;;;;;;435.47;177.93;;;;;;;;;;5031984;28;20179;-48
2023/10/16 12:53:36;;;;;;;432.83;171.53;;;;;;;;;;5042944;28;20192;-48
2023/10/16 12:56:05;;;;;;;433.20;170.43;;;;;;;;;;5047266;28;20225;-48
2023/10/16 12:58:31;;;;;;;431.60;168.63;;;;;;;;;;5046707;28;20195;-48
2023/10/16 13:00:58;;;;;;;447.63;178.00;;;;;;;;;;5047317;28;20538;-48
2023/10/16 13:03:25;;;;;;;448.87;172.40;;;;;;;;;;5047309;28;20207;-48
2023/10/16 13:05:52;;;;;;;442.83;173.77;;;;;;;;;;5038937;28;20199;-48
2023/10/16 13:08:20;;;;;;;445.87;175.30;;;;;;;;;;5027439;28;20257;-48
2023/10/16 13:10:48;;;;;;;445.90;173.63;;;;;;;;;;5027493;28;20204;-48
2023/10/16 13:13:15;;;;;;;438.13;172.13;;;;;;;;;;5026687;28;20654;-48
2023/10/16 13:15:45;;;;;;;435.13;171.97;;;;;;;;;;5035817;28;20184;-48
2023/10/16 13:18:13;;;;;;;441.03;175.03;;;;;;;;;;5027412;28;20179;-49
2023/10/16 13:20:39;;;;;;;446.67;174.17;;;;;;;;;;5026800;28;20231;-48
2023/10/16 13:23:06;;;;;;;430.57;171.77;;;;;;;;;;5028681;28;20639;-48
2023/10/16 13:25:34;;;;;;;438.83;172.33;;;;;;;;;;5026707;28;20192;-48
2023/10/16 13:28:00;;;;;;;439.57;174.40;;;;;;;;;;5026906;28;20180;-48
2023/10/16 13:30:26;;;;;;;458.87;186.13;;;;;;;;;;5030067;28;20204;-48
2023/10/16 13:32:52;;;;;;;447.10;177.93;;;;;;;;;;5048814;28;20657;-48
2023/10/16 13:35:22;;;;;;;447.00;175.20;;;;;;;;;;5050804;28;20252;-48
2023/10/16 13:37:50;;;;;;;453.67;181.73;;;;;;;;;;5050513;28;20171;-48
2023/10/16 13:40:20;;;;;;;439.23;171.07;;;;;;;;;;5030830;28;20206;-48
2023/10/16 13:43:00;;;;;;;454.00;179.27;;;;;;;;;;5031103;28;20222;-48
2023/10/16 13:45:27;;;;;;;442.13;172.20;;;;;;;;;;5029082;28;20271;-48
2023/10/16 13:47:54;;;;;;;447.47;174.43;;;;;;;;;;5030778;28;20192;-48
2023/10/16 13:50:24;;;;;;;440.83;172.00;;;;;;;;;;5044393;28;20324;-48
2023/10/16 13:52:51;;;;;;;451.27;178.53;;;;;;;;;;5016756;28;20199;-48
2023/10/16 13:55:20;;;;;;;443.20;173.73;;;;;;;;;;5050269;28;20176;-48
2023/10/16 13:57:47;;;;;;;456.73;176.90;;;;;;;;;;5035478;28;20181;-49
2023/10/16 14:00:29;;;;;;;440.63;172.00;;;;;;;;;;5031839;28;20204;-49
2023/10/16 14:02:59;;;;;;;442.50;173.00;;;;;;;;;;5044083;28;20241;-48
2023/10/16 14:05:28;;;;;;;458.33;180.27;;;;;;;;;;5050123;28;20184;-49
2023/10/16 14:07:54;;;;;;;449.57;175.77;;;;;;;;;;5050051;28;20418;-49
2023/10/16 14:10:21;;;;;;;451.03;176.10;;;;;;;;;;5030019;28;20204;-49
2023/10/16 14:13:00;;;;;;;448.30;176.27;;;;;;;;;;5039277;28;20199;-49
2023/10/16 14:15:32;;;;;;;443.33;172.20;;;;;;;;;;5037971;28;20171;-49
2023/10/16 14:17:59;;;;;;;435.10;175.53;;;;;;;;;;5032412;28;20598;-48
2023/10/16 14:20:34;;;;;;;439.23;173.00;;;;;;;;;;5029339;28;20208;-49
2023/10/16 14:23:01;;;;;;;446.63;175.57;;;;;;;;;;5029907;28;20183;-49
2023/10/16 14:25:32;;;;;;;436.73;175.20;;;;;;;;;;5030113;28;20180;-49
2023/10/16 14:28:11;;;;;;;450.03;179.23;;;;;;;;;;5036500;28;20176;-49
2023/10/16 14:30:38;;;;;;;437.10;173.30;;;;;;;;;;5032578;28;20210;-49
2023/10/16 14:33:06;;;;;;;426.23;168.23;;;;;;;;;;5042664;28;20207;-49
2023/10/16 14:35:37;;;;;;;457.53;179.10;;;;;;;;;;5029548;28;20186;-48
2023/10/16 14:38:03;;;;;;;442.87;175.70;;;;;;;;;;5029713;28;20161;-49
2023/10/16 14:40:29;;;;;;;455.30;178.13;;;;;;;;;;5034893;28;20227;-48
2023/10/16 14:42:55;;;;;;;450.83;178.77;;;;;;;;;;5044506;28;20235;-49
2023/10/16 14:45:23;;;;;;;459.37;180.93;;;;;;;;;;5045420;28;20650;-49
2023/10/16 14:47:50;;;;;;;467.40;183.60;;;;;;;;;;5042139;28;20191;-48
2023/10/16 14:50:16;;;;;;;445.47;173.97;;;;;;;;;;5037223;28;20212;-49
2023/10/16 14:52:42;;;;;;;447.80;176.30;;;;;;;;;;5044878;28;20203;-48
2023/10/16 14:55:08;;;;;;;438.43;178.70;;;;;;;;;;5030349;28;20199;-48
2023/10/16 14:57:35;;;;;;;432.50;174.70;;;;;;;;;;5037031;28;20191;-48
2023/10/16 15:00:02;;;;;;;425.77;170.33;;;;;;;;;;5029115;28;20192;-48
2023/10/16 15:02:28;;;;;;;444.07;176.43;;;;;;;;;;5032189;28;20191;-48
2023/10/16 15:04:54;;;;;;;442.87;175.97;;;;;;;;;;5029432;28;20176;-48
2023/10/16 15:07:21;;;;;;;456.73;182.80;;;;;;;;;;5038248;28;20172;-48
2023/10/16 15:09:48;;;;;;;445.57;178.97;;;;;;;;;;5031294;28;20199;-48
2023/10/16 15:12:14;;;;;;;453.20;175.20;;;;;;;;;;5024615;28;20528;-48
2023/10/16 15:14:42;;;;;;;444.30;174.30;;;;;;;;;;5033275;28;20368;-48
2023/10/16 15:17:10;;;;;;;446.77;174.27;;;;;;;;;;5036043;28;20177;-48
2023/10/16 15:19:38;;;;;;;438.97;171.80;;;;;;;;;;5028598;28;20204;-48
2023/10/16 15:22:05;;;;;;;439.97;173.03;;;;;;;;;;5031980;28;20187;-48
2023/10/16 15:24:31;;;;;;;438.03;169.87;;;;;;;;;;5034892;28;20271;-47
2023/10/16 15:26:57;;;;;;;447.37;172.60;;;;;;;;;;5037216;28;20279;-47
2023/10/16 15:29:23;;;;;;;442.83;170.67;;;;;;;;;;5028597;28;20627;-47
2023/10/16 15:31:49;;;;;;;455.27;174.20;;;;;;;;;;5022072;28;20259;-48
2023/10/16 15:34:15;;;;;;;464.17;178.57;;;;;;;;;;5024516;28;20180;-48
2023/10/16 15:36:43;;;;;;;462.93;178.43;;;;;;;;;;5029256;28;20238;-48
2023/10/16 15:39:15;;;;;;;440.77;172.83;;;;;;;;;;5037119;28;20199;-47
2023/10/16 15:41:44;;;;;;;455.47;173.83;;;;;;;;;;5035860;28;20196;-48